METAR Data
IDs: Format: Raw Decoded Include TAF

Data at: 0321 UTC 18 Jun 2019

PAVC 180256Z AUTO 24020G25KT 10SM CLR 13/10 A2983 RMK AO2 SLP107 T01280100 51008
PAVC 180156Z AUTO 23018G25KT 10SM FEW008 12/10 A2982 RMK AO2 PK WND 25027/0143 SLP104 T01220100
PAVC 180056Z AUTO 24019G24KT 10SM CLR 13/11 A2980 RMK AO2 PK WND 23027/0027 SLP098 T01330106
PAVC 172356Z AUTO 23018G24KT 10SM SCT110 13/11 A2979 RMK AO2 SLP093 T01280106 10128 20094 53000
PAVC 172256Z AUTO 25017G20KT 10SM FEW010 BKN036 BKN070 13/10 A2979 RMK AO2 SLP092 T01280100
PAVC 172247Z AUTO 24012KT 10SM FEW008 BKN023 OVC036 12/10 A2979 RMK AO2
PAVC 172156Z AUTO 23012KT 7SM BKN008 BKN047 OVC065 11/09 A2979 RMK AO2 CIG 005V013 SLP093 T01110094
PAVC 172123Z AUTO 25013KT 10SM FEW009 BKN035 OVC043 11/09 A2978 RMK AO2
PAVC 172056Z AUTO 23012KT 10SM BKN009 BKN037 OVC047 11/09 A2978 RMK AO2 CIG 008V013 SLP090 T01110094 53007
PAVC 172003Z AUTO 24011G19KT 10SM FEW009 BKN037 OVC055 11/09 A2977 RMK AO2
PAVC 171956Z AUTO 24013G20KT 10SM BKN009 BKN035 OVC085 11/09 A2976 RMK AO2 CIG 006V012 SLP085 T01060089
PAVC 171915Z AUTO 24013KT 8SM BKN007 OVC011 10/09 A2977 RMK AO2 CIG 003V009
PAVC 171907Z AUTO 25015KT 10SM BKN005 OVC013 10/09 A2977 RMK AO2 CIG 003V009
PAVC 171856Z AUTO 25012G17KT 10SM BKN007 OVC013 10/09 A2977 RMK AO2 CIG 002V010 SLP088 T01000089
PAVC 171843Z AUTO 24008KT 10SM SCT002 BKN007 OVC012 10/09 A2977 RMK AO2
PAVC 171833Z AUTO 23013KT 7SM SCT002 BKN013 OVC020 09/09 A2977 RMK AO2
PAVC 171823Z AUTO 22015KT 3SM BR SCT002 BKN015 OVC020 09/09 A2977 RMK AO2
PAVC 171756Z AUTO 23009KT 10SM BKN019 OVC026 11/09 A2976 RMK AO2 SLP083 60000 T01060089 10106 20078 50004
PAVC 171656Z AUTO 23011KT 10SM BKN017 BKN024 OVC029 10/09 A2976 RMK AO2 RAB08E20 SLP084 P0000 T01000089
PAVC 171654Z AUTO 22010KT 9SM FEW010 BKN017 OVC029 10/08 A2976 RMK AO2 RAB08E20 P0000
PAVC 171621Z AUTO 24011KT 10SM FEW024 BKN032 OVC050 10/09 A2975 RMK AO2 RAB08E20 P0000
PAVC 171606Z AUTO 23015KT 10SM SCT012 BKN027 OVC045 09/09 A2975 RMK AO2
PAVC 171556Z AUTO 23014KT 10SM BKN012 BKN028 OVC041 09/09 A2975 RMK AO2 RAB25E51 SLP079 P0000 T00940089
PAVC 171506Z AUTO 28009KT 6SM BR FEW008 OVC013 09/08 A2975 RMK AO2
PAVC 171456Z AUTO 27008KT 5SM BR BKN011 OVC017 09/08 A2975 RMK AO2 SLP080 T00890083 51001
PAVC 171454Z AUTO 27008KT 4SM BR BKN011 OVC014 09/08 A2975 RMK AO2 CIG 007V012
PAVC 171443Z AUTO 27011KT 5SM BR SCT011 BKN016 OVC044 09/08 A2975 RMK AO2
PAVC 171356Z AUTO 26011KT 10SM FEW025 BKN120 08/08 A2974 RMK AO2 SLP079 T00830078
PAVC 171256Z AUTO 23010KT 10SM FEW050 OVC110 09/07 A2974 RMK AO2 SLP078 T00890067
PAVC 171209Z AUTO 27008KT 10SM SCT007 OVC055 08/07 A2975 RMK AO2
PAVC 171156Z AUTO 24005KT 10SM BKN005 OVC055 08/08 A2975 RMK AO2 CIG 003V010 SLP080 60007 70009 T00830078 10094 20072 52000
PAVC 171144Z AUTO 26007KT 10SM BKN005 OVC100 08/07 A2975 RMK AO2 CIG 003V008
PAVC 171136Z AUTO 26007KT 10SM BKN007 OVC100 08/07 A2975 RMK AO2 CIG 004V012
PAVC 171056Z AUTO 24006KT 10SM SCT009 SCT033 OVC090 08/07 A2975 RMK AO2 SLP079 T00780072
PAVC 171042Z AUTO 25006KT 10SM SCT009 BKN060 OVC110 08/07 A2975 RMK AO2
PAVC 170956Z AUTO 25005KT 10SM SCT047 BKN055 08/07 A2975 RMK AO2 SLP079 T00780072
PAVC 170856Z AUTO 29003KT 10SM BKN045 OVC060 08/07 A2975 RMK AO2 RAE46 SLP079 P0002 60007 T00780072 401170078 51010
PAVC 170834Z AUTO 28003KT 9SM -RA SCT028 BKN035 OVC044 08/08 A2975 RMK AO2 P0002
PAVC 170756Z AUTO 00000KT 7SM -RA BKN033 OVC042 08/08 A2974 RMK AO2 SLP077 P0002 T00780078
PAVC 170656Z AUTO 25003KT 4SM -RA BR FEW030 OVC041 08/08 A2973 RMK AO2 SLP074 P0003 T00830078
PAVC 170627Z AUTO 00000KT 5SM -RA BR SCT024 BKN032 OVC038 09/07 A2973 RMK AO2 P0001
PAVC 170620Z AUTO 00000KT 5SM -RA BKN024 OVC032 09/07 A2972 RMK AO2 P0001
PAVC 170556Z AUTO 00000KT 10SM -RA OVC034 09/07 A2972 RMK AO2 SLP069 P0000 60000 T00940067 10117 20094 51009
PAVC 170456Z AUTO 04005KT 10SM -RA FEW023 OVC032 09/07 A2971 RMK AO2 SLP067 P0000 T00940067
PAVC 170436Z AUTO 05005KT 10SM -RA SCT026 OVC034 10/07 A2971 RMK AO2 P0000
PAVC 170426Z AUTO 02006KT 10SM -RA BKN026 OVC034 10/07 A2971 RMK AO2 P0000
PAVC 170356Z AUTO 02007KT 10SM -RA FEW025 OVC036 11/07 A2970 RMK AO2 RAB54 SLP063 P0000 T01060067
PAVC 170256Z AUTO 05013KT 10SM FEW025 BKN060 OVC080 11/07 A2969 RMK AO2 SLP060 T01110067 53006
PAVC 170156Z AUTO 08009KT 10SM FEW022 BKN046 OVC060 10/07 A2968 RMK AO2 SLP058 T01000072
PAVC 170136Z AUTO 08009KT 10SM SCT027 BKN037 OVC070 10/07 A2968 RMK AO2
PAVC 170056Z AUTO 11009KT 10SM BKN026 BKN031 OVC047 10/07 A2968 RMK AO2 SLP055 T01000072
PAVC 170047Z AUTO 11008KT 10SM SCT024 BKN028 OVC038 09/07 A2968 RMK AO2
PAVC 162356Z AUTO 09013KT 10SM FEW019 SCT024 OVC034 09/07 A2967 RMK AO2 RAE16 SLP053 P0000 60000 T00940072 10106 20083 51009
PAVC 162313Z AUTO 07011KT 10SM -RA SCT019 SCT024 OVC034 10/07 A2967 RMK AO2 P0000
PAVC 162256Z AUTO 06011KT 10SM -RA SCT019 BKN024 OVC034 10/07 A2966 RMK AO2 RAE05B26 SLP051 P0000 T01000072
PAVC 162156Z AUTO 08012KT 10SM -RA FEW025 BKN033 OVC055 09/07 A2966 RMK AO2 RAB47 SLP048 P0000 T00940072
PAVC 162132Z AUTO 07014KT 10SM FEW026 OVC033 10/07 A2965 RMK AO2
PAVC 162056Z AUTO 08014KT 10SM BKN024 OVC033 10/07 A2964 RMK AO2 RAE04 SLP045 P0000 60000 T01000072 51007
PAVC 161956Z AUTO 07009G16KT 10SM -RA BKN024 OVC036 09/07 A2964 RMK AO2 RAE33B50 SLP041 P0000 T00940067
PAVC 161856Z AUTO 07012KT 10SM -RA BKN022 BKN027 OVC034 09/07 A2963 RMK AO2 SLP040 P0000 T00890067
PAVC 161756Z AUTO 07011KT 10SM -RA FEW019 BKN024 OVC031 09/07 A2962 RMK AO2 SLP037 P0001 60002 T00890067 10089 20078 53004
PAVC 161656Z AUTO 06008KT 10SM -RA OVC026 09/06 A2961 RMK AO2 SLP032 P0000 T00890061
PAVC 161556Z AUTO 05007G15KT 10SM -RA BKN022 OVC029 08/06 A2961 RMK AO2 SLP032 P0000 T00830061